createdAt,value
2022-08-24T00:00:35.120Z,15.50
2022-08-24T00:02:37.147Z,15.50
2022-08-24T00:04:39.184Z,15.40
2022-08-24T00:06:40.946Z,15.40
2022-08-24T00:08:43.488Z,15.40
2022-08-24T00:10:45.841Z,15.30
2022-08-24T00:12:48.444Z,15.30
2022-08-24T00:14:50.712Z,15.30
2022-08-24T00:16:52.661Z,15.30
2022-08-24T00:18:56.075Z,15.30
2022-08-24T00:20:57.910Z,15.30
2022-08-24T00:22:59.671Z,15.20
2022-08-24T00:25:01.629Z,15.20
2022-08-24T00:27:03.867Z,15.20
2022-08-24T00:29:07.700Z,15.10
2022-08-24T00:31:10.414Z,15.10
2022-08-24T00:33:12.195Z,15.10
2022-08-24T00:35:18.264Z,15.10
2022-08-24T00:37:20.050Z,15.10
2022-08-24T00:39:22.112Z,15.00
2022-08-24T00:41:24.548Z,15.00
2022-08-24T00:43:26.667Z,15.00
2022-08-24T00:45:29.544Z,14.90
2022-08-24T00:47:40.957Z,14.90
2022-08-24T00:50:06.152Z,14.90
2022-08-24T00:52:14.256Z,14.90
2022-08-24T00:54:18.583Z,14.80
2022-08-24T00:56:26.767Z,14.80
2022-08-24T00:58:39.063Z,14.80
2022-08-24T01:00:46.587Z,14.70
2022-08-24T01:02:55.833Z,14.70
2022-08-24T01:05:01.819Z,14.70
2022-08-24T01:07:04.382Z,14.60
2022-08-24T01:09:06.775Z,14.60
2022-08-24T01:11:12.619Z,14.60
2022-08-24T01:13:15.438Z,14.60
2022-08-24T01:15:17.407Z,14.50
2022-08-24T01:17:40.555Z,14.50
2022-08-24T01:19:47.696Z,14.50
2022-08-24T01:22:12.952Z,14.50
2022-08-24T01:24:15.404Z,14.40
2022-08-24T01:26:36.272Z,14.40
2022-08-24T01:28:42.268Z,14.40
2022-08-24T01:30:45.378Z,14.40
2022-08-24T01:32:58.936Z,14.30
2022-08-24T01:35:00.859Z,14.30
2022-08-24T01:37:03.272Z,14.30
2022-08-24T01:39:21.637Z,14.30
2022-08-24T01:41:28.264Z,14.30
2022-08-24T01:43:31.025Z,14.20
2022-08-24T01:45:36.323Z,14.20
2022-08-24T01:47:38.084Z,14.20
2022-08-24T01:49:43.580Z,14.20
2022-08-24T01:51:46.363Z,14.10
2022-08-24T01:53:48.465Z,14.20
2022-08-24T01:55:50.303Z,14.10
2022-08-24T01:57:52.056Z,14.10
2022-08-24T01:59:53.927Z,14.10
2022-08-24T02:02:04.318Z,14.00
2022-08-24T02:04:08.712Z,14.00
2022-08-24T02:06:12.288Z,14.00
2022-08-24T02:08:14.439Z,14.00
2022-08-24T02:10:17.167Z,13.90
2022-08-24T02:12:19.764Z,13.90
2022-08-24T02:14:21.938Z,13.90
2022-08-24T02:16:24.181Z,13.80
2022-08-24T02:18:26.027Z,13.80
2022-08-24T02:20:28.531Z,13.80
2022-08-24T02:22:30.332Z,13.80
2022-08-24T02:24:32.825Z,13.80
2022-08-24T02:26:34.692Z,13.70
2022-08-24T02:28:37.894Z,13.70
2022-08-24T02:30:40.873Z,13.70
2022-08-24T02:32:43.375Z,13.70
2022-08-24T02:34:45.164Z,13.60
2022-08-24T02:36:47.007Z,13.70
2022-08-24T02:38:48.766Z,13.60
2022-08-24T02:40:50.620Z,13.60
2022-08-24T02:42:52.844Z,13.60
2022-08-24T02:44:55.272Z,13.60
2022-08-24T02:46:57.439Z,13.50
2022-08-24T02:49:11.080Z,13.50
2022-08-24T02:51:26.327Z,13.50
2022-08-24T02:53:30.922Z,13.50
2022-08-24T02:55:32.714Z,13.40
2022-08-24T02:57:34.555Z,13.40
2022-08-24T02:59:36.366Z,13.40
2022-08-24T03:01:38.270Z,13.40
2022-08-24T03:03:40.989Z,13.40
2022-08-24T03:05:42.968Z,13.40
2022-08-24T03:07:44.866Z,13.40
2022-08-24T03:09:46.644Z,13.30
2022-08-24T03:11:48.434Z,13.30
2022-08-24T03:13:50.536Z,13.30
2022-08-24T03:15:52.534Z,13.30
2022-08-24T03:17:54.365Z,13.20
2022-08-24T03:19:56.117Z,13.30
2022-08-24T03:21:57.925Z,13.20
2022-08-24T03:23:59.738Z,13.20
2022-08-24T03:26:02.008Z,13.20
2022-08-24T03:28:03.879Z,13.20
2022-08-24T03:30:15.124Z,13.20
2022-08-24T03:32:17.851Z,13.20
2022-08-24T03:34:20.902Z,13.20
2022-08-24T03:36:22.755Z,13.10
2022-08-24T03:38:25.240Z,13.10
2022-08-24T03:40:27.158Z,13.10
2022-08-24T03:42:29.046Z,13.10
2022-08-24T03:44:30.863Z,13.10
2022-08-24T03:46:36.754Z,13.10
2022-08-24T03:48:40.236Z,13.00
2022-08-24T03:50:46.178Z,13.00
2022-08-24T03:52:49.070Z,13.00
2022-08-24T03:54:50.874Z,13.00
2022-08-24T03:56:52.678Z,13.00
2022-08-24T03:58:55.179Z,13.00
2022-08-24T04:00:58.379Z,13.00
2022-08-24T04:03:00.272Z,13.00
2022-08-24T04:05:02.069Z,12.90
2022-08-24T04:07:04.425Z,12.90
2022-08-24T04:09:07.679Z,12.90
2022-08-24T04:11:16.753Z,12.90
2022-08-24T04:13:19.160Z,12.90
2022-08-24T04:15:21.110Z,12.90
2022-08-24T04:17:23.032Z,12.90
2022-08-24T04:19:25.029Z,12.90
2022-08-24T04:21:35.373Z,12.90
2022-08-24T04:23:47.044Z,12.90
2022-08-24T04:25:49.624Z,12.90
2022-08-24T04:27:51.421Z,12.80
2022-08-24T04:29:53.213Z,12.80
2022-08-24T04:31:55.111Z,12.80
2022-08-24T04:33:57.467Z,12.80
2022-08-24T04:35:59.342Z,12.80
2022-08-24T04:38:01.234Z,12.80
2022-08-24T04:40:04.504Z,12.80
2022-08-24T04:42:06.643Z,12.80
2022-08-24T04:44:08.455Z,12.80
2022-08-24T04:46:10.270Z,12.80
2022-08-24T04:48:13.458Z,12.80
2022-08-24T04:50:15.225Z,12.80
2022-08-24T04:52:18.208Z,12.80
2022-08-24T04:54:20.066Z,12.80
2022-08-24T04:56:24.035Z,12.90
2022-08-24T04:58:27.488Z,12.90
2022-08-24T05:00:29.273Z,12.90
2022-08-24T05:02:32.994Z,12.90
2022-08-24T05:04:38.023Z,12.90
2022-08-24T05:06:41.351Z,13.00
2022-08-24T05:08:43.938Z,13.00
2022-08-24T05:10:48.816Z,13.00
2022-08-24T05:12:50.722Z,13.00
2022-08-24T05:14:52.693Z,13.10
2022-08-24T05:16:54.595Z,13.10
2022-08-24T05:18:56.652Z,13.10
2022-08-24T05:20:58.653Z,13.20
2022-08-24T05:23:03.877Z,13.20
2022-08-24T05:25:06.625Z,13.30
2022-08-24T05:27:08.821Z,13.30
2022-08-24T05:29:10.861Z,13.40
2022-08-24T05:31:21.912Z,13.40
2022-08-24T05:33:23.756Z,13.50
2022-08-24T05:35:25.700Z,13.50
2022-08-24T05:37:27.480Z,13.60
2022-08-24T05:39:31.104Z,13.60
2022-08-24T05:41:32.983Z,13.70
2022-08-24T05:43:34.815Z,13.80
2022-08-24T05:45:36.588Z,13.80
2022-08-24T05:47:39.068Z,13.90
2022-08-24T05:49:41.734Z,13.90
2022-08-24T05:51:43.520Z,14.00
2022-08-24T05:53:45.526Z,14.00
2022-08-24T05:55:47.309Z,14.10
2022-08-24T05:57:50.421Z,14.10
2022-08-24T05:59:52.887Z,14.20
2022-08-24T06:01:54.721Z,14.30
2022-08-24T06:03:57.845Z,14.30
2022-08-24T06:06:01.905Z,14.40
2022-08-24T06:08:03.933Z,14.50
2022-08-24T06:10:26.287Z,14.60
2022-08-24T06:12:27.891Z,14.60
2022-08-24T06:14:29.683Z,14.70
2022-08-24T06:16:34.020Z,14.80
2022-08-24T06:18:36.329Z,14.90
2022-08-24T06:20:41.512Z,15.00
2022-08-24T06:22:44.437Z,15.00
2022-08-24T06:25:04.902Z,15.10
2022-08-24T06:27:22.381Z,15.20
2022-08-24T06:29:24.352Z,15.30
2022-08-24T06:31:27.641Z,15.40
2022-08-24T06:33:29.673Z,15.50
2022-08-24T06:35:31.802Z,15.60
2022-08-24T06:37:33.587Z,15.70
2022-08-24T06:39:36.001Z,15.80
2022-08-24T06:41:39.113Z,15.90
2022-08-24T06:43:41.057Z,16.00
2022-08-24T06:45:45.020Z,16.10
2022-08-24T06:47:46.903Z,16.20
2022-08-24T06:49:48.973Z,16.30
2022-08-24T06:51:51.422Z,16.40
2022-08-24T06:53:56.205Z,16.50
2022-08-24T06:55:59.212Z,16.60
2022-08-24T06:58:02.637Z,16.60
2022-08-24T07:00:05.867Z,16.70
2022-08-24T07:02:08.594Z,16.80
2022-08-24T07:04:10.626Z,16.90
2022-08-24T07:06:14.158Z,17.00
2022-08-24T07:08:15.943Z,17.00
2022-08-24T07:10:17.735Z,17.20
2022-08-24T07:12:24.924Z,17.20
2022-08-24T07:14:26.826Z,17.30
2022-08-24T07:16:28.865Z,17.30
2022-08-24T07:18:30.681Z,17.50
2022-08-24T07:20:32.531Z,17.60
2022-08-24T07:22:34.341Z,17.70
2022-08-24T07:24:36.258Z,17.80
2022-08-24T07:26:39.235Z,17.90
2022-08-24T07:28:41.117Z,18.00
2022-08-24T07:30:43.636Z,18.10
2022-08-24T07:32:45.463Z,18.20
2022-08-24T07:34:47.445Z,18.30
2022-08-24T07:36:50.689Z,18.40
2022-08-24T07:38:53.017Z,18.50
2022-08-24T07:41:20.343Z,18.60
2022-08-24T07:43:17.571Z,18.70
2022-08-24T07:45:20.655Z,18.80
2022-08-24T07:47:37.455Z,18.90
2022-08-24T07:49:41.578Z,19.00
2022-08-24T07:51:46.620Z,19.10
2022-08-24T07:53:53.961Z,19.20
2022-08-24T07:55:57.150Z,19.20
2022-08-24T07:57:59.544Z,19.30
2022-08-24T08:00:06.857Z,19.40
2022-08-24T08:02:08.911Z,19.50
2022-08-24T08:04:10.846Z,19.50
2022-08-24T08:06:16.169Z,19.70
2022-08-24T08:08:20.202Z,19.80
2022-08-24T08:10:23.428Z,19.80
2022-08-24T08:12:25.780Z,19.90
2022-08-24T08:14:27.831Z,20.00
2022-08-24T08:16:29.749Z,20.10
2022-08-24T08:18:32.048Z,20.20
2022-08-24T08:20:34.663Z,20.20
2022-08-24T08:22:55.087Z,20.30
2022-08-24T08:24:56.881Z,20.40
2022-08-24T08:26:59.367Z,20.50
2022-08-24T08:29:01.936Z,20.60
2022-08-24T08:31:05.763Z,20.60
2022-08-24T08:33:08.423Z,20.70
2022-08-24T08:35:10.840Z,20.80
2022-08-24T08:37:13.784Z,20.90
2022-08-24T08:39:18.161Z,20.90
2022-08-24T08:42:10.234Z,21.00
2022-08-24T08:44:41.823Z,21.10
2022-08-24T08:47:08.319Z,21.10
2022-08-24T08:49:47.731Z,21.20
2022-08-24T08:52:24.529Z,21.30
2022-08-24T08:54:45.904Z,21.40
2022-08-24T08:57:05.784Z,21.50
2022-08-24T08:59:45.580Z,21.50
2022-08-24T09:02:22.328Z,21.60
2022-08-24T09:04:56.714Z,21.60
2022-08-24T09:07:15.761Z,21.70
2022-08-24T09:09:37.779Z,21.70
2022-08-24T09:12:05.693Z,21.80
2022-08-24T09:14:10.031Z,21.90
2022-08-24T09:16:33.364Z,21.90
2022-08-24T09:18:44.386Z,22.00
2022-08-24T09:21:04.079Z,22.00
2022-08-24T09:23:26.185Z,22.10
2022-08-24T09:25:55.208Z,22.20
2022-08-24T09:28:28.458Z,22.30
2022-08-24T09:30:40.842Z,22.40
2022-08-24T09:33:00.878Z,22.30
2022-08-24T09:35:06.310Z,22.40
2022-08-24T09:37:30.851Z,22.40
2022-08-24T09:40:05.845Z,22.50
2022-08-24T09:42:16.942Z,22.60
2022-08-24T09:44:41.774Z,22.60
2022-08-24T09:47:04.834Z,22.80
2022-08-24T09:49:37.339Z,22.90
2022-08-24T09:52:00.323Z,22.90
2022-08-24T09:54:24.128Z,23.00
2022-08-24T09:56:37.877Z,23.10
2022-08-24T09:59:03.830Z,23.10
2022-08-24T10:01:30.392Z,23.20
2022-08-24T10:03:48.974Z,23.30
2022-08-24T10:05:59.863Z,23.30
2022-08-24T10:08:29.026Z,23.40
2022-08-24T10:10:53.523Z,23.50
2022-08-24T10:13:19.271Z,23.60
2022-08-24T10:15:28.383Z,23.60
2022-08-24T10:17:54.577Z,23.70
2022-08-24T10:20:05.970Z,23.80
2022-08-24T10:22:34.971Z,23.80
2022-08-24T10:24:39.840Z,23.90
2022-08-24T10:26:53.760Z,23.90
2022-08-24T10:29:05.815Z,23.90
2022-08-24T10:31:13.123Z,24.00
2022-08-24T10:33:20.652Z,24.10
2022-08-24T10:35:33.910Z,24.10
2022-08-24T10:38:22.411Z,24.10
2022-08-24T10:40:40.175Z,24.10
2022-08-24T10:43:09.329Z,24.10
2022-08-24T10:45:14.128Z,24.10
2022-08-24T10:47:29.218Z,24.10
2022-08-24T10:49:37.094Z,24.20
2022-08-24T10:52:09.067Z,24.30
2022-08-24T10:54:12.955Z,24.30
2022-08-24T10:56:21.577Z,24.40
2022-08-24T10:58:49.485Z,24.50
2022-08-24T11:00:51.758Z,24.50
2022-08-24T11:03:09.486Z,24.60
2022-08-24T11:05:28.011Z,24.60
2022-08-24T11:07:29.854Z,24.60
2022-08-24T11:09:48.913Z,24.60
2022-08-24T11:11:50.795Z,24.70
2022-08-24T11:14:00.326Z,24.70
2022-08-24T11:16:04.215Z,24.70
2022-08-24T11:18:06.444Z,24.70
2022-08-24T11:20:27.863Z,24.80
2022-08-24T11:23:02.292Z,24.80
2022-08-24T11:25:28.273Z,24.90
2022-08-24T11:27:40.918Z,24.90
2022-08-24T11:29:52.023Z,25.00
2022-08-24T11:31:53.959Z,25.10
2022-08-24T11:34:24.347Z,25.20
2022-08-24T11:36:29.119Z,25.30
2022-08-24T11:38:34.972Z,25.30
2022-08-24T11:40:41.949Z,25.40
2022-08-24T11:42:46.530Z,25.50
2022-08-24T11:45:14.212Z,25.50
2022-08-24T11:47:39.811Z,25.50
2022-08-24T11:49:48.123Z,25.50
2022-08-24T11:51:59.348Z,25.50
2022-08-24T11:54:48.807Z,25.60
2022-08-24T11:57:31.267Z,25.60
2022-08-24T11:59:50.675Z,25.70
2022-08-24T12:02:04.242Z,25.70
2022-08-24T12:04:39.377Z,25.80
2022-08-24T12:06:55.856Z,25.90
2022-08-24T12:09:43.122Z,25.90
2022-08-24T12:12:17.069Z,26.00
2022-08-24T12:14:29.664Z,26.10
2022-08-24T12:16:47.816Z,26.10
2022-08-24T12:19:02.324Z,26.10
2022-08-24T12:21:04.743Z,26.20
2022-08-24T12:23:34.828Z,26.20
2022-08-24T12:25:55.363Z,26.30
2022-08-24T12:27:58.092Z,26.30
2022-08-24T12:30:05.529Z,26.30
2022-08-24T12:32:21.792Z,26.30
2022-08-24T12:34:46.001Z,26.40
2022-08-24T12:37:16.369Z,26.50
2022-08-24T12:39:28.651Z,26.40
2022-08-24T12:41:35.370Z,26.40
2022-08-24T12:43:43.841Z,26.30
2022-08-24T12:45:46.263Z,26.30
2022-08-24T12:48:00.501Z,26.30
2022-08-24T12:50:23.239Z,26.40
2022-08-24T12:53:00.589Z,26.60
2022-08-24T12:55:19.150Z,26.70
2022-08-24T12:57:53.106Z,26.90
2022-08-24T13:00:02.507Z,26.90
2022-08-24T13:02:25.078Z,27.00
2022-08-24T13:04:51.181Z,27.00
2022-08-24T13:07:01.988Z,26.90
2022-08-24T13:09:29.622Z,26.80
2022-08-24T13:11:35.164Z,26.80
2022-08-24T13:14:18.384Z,26.60
2022-08-24T13:16:49.603Z,26.60
2022-08-24T13:19:11.484Z,26.60
2022-08-24T13:21:35.055Z,26.60
2022-08-24T13:23:37.039Z,26.60
2022-08-24T13:25:47.986Z,26.50
2022-08-24T13:28:04.511Z,26.50
2022-08-24T13:30:18.290Z,26.40
2022-08-24T13:32:39.133Z,26.30
2022-08-24T13:34:47.123Z,26.30
2022-08-24T13:37:11.156Z,26.40
2022-08-24T13:39:21.735Z,26.60
2022-08-24T13:41:27.168Z,26.70
2022-08-24T13:43:47.126Z,26.90
2022-08-24T13:45:59.865Z,27.00
2022-08-24T13:48:07.553Z,27.20
2022-08-24T13:50:45.802Z,27.40
2022-08-24T13:53:11.791Z,27.50
2022-08-24T13:55:35.081Z,27.70
2022-08-24T13:57:39.539Z,27.80
2022-08-24T13:59:48.085Z,27.80
2022-08-24T14:02:11.670Z,27.90
2022-08-24T14:04:25.339Z,28.10
2022-08-24T14:06:55.475Z,28.20
2022-08-24T14:09:11.495Z,28.30
2022-08-24T14:11:34.300Z,28.50
2022-08-24T14:14:05.990Z,28.60
2022-08-24T14:17:19.441Z,28.80
2022-08-24T14:19:36.640Z,28.90
2022-08-24T14:21:47.997Z,29.10
2022-08-24T14:23:56.217Z,29.20
2022-08-24T14:26:36.750Z,29.30
2022-08-24T14:28:43.707Z,29.50
2022-08-24T14:30:46.892Z,29.70
2022-08-24T14:33:00.973Z,29.80
2022-08-24T14:35:36.335Z,29.90
2022-08-24T14:38:11.551Z,30.00
2022-08-24T14:40:35.135Z,29.90
2022-08-24T14:43:07.899Z,29.90
2022-08-24T14:45:19.629Z,30.00
2022-08-24T14:47:40.510Z,30.10
2022-08-24T14:49:46.727Z,30.10
2022-08-24T14:52:04.239Z,30.10
2022-08-24T14:54:39.900Z,30.20
2022-08-24T14:57:22.508Z,30.30
2022-08-24T14:59:50.860Z,30.50
2022-08-24T15:02:45.212Z,30.60
2022-08-24T15:04:52.710Z,30.60
2022-08-24T15:07:22.949Z,30.50
2022-08-24T15:09:38.587Z,30.50
2022-08-24T15:11:41.648Z,30.50
2022-08-24T15:13:48.236Z,30.50
2022-08-24T15:15:53.193Z,30.50
2022-08-24T15:18:13.469Z,30.60
2022-08-24T15:20:46.615Z,30.80
2022-08-24T15:23:11.668Z,30.90
2022-08-24T15:25:34.837Z,30.90
2022-08-24T15:27:50.806Z,30.90
2022-08-24T15:29:56.650Z,30.90
2022-08-24T15:32:01.562Z,30.90
2022-08-24T15:34:04.646Z,31.00
2022-08-24T15:36:11.067Z,31.00
2022-08-24T15:38:21.262Z,31.00
2022-08-24T15:40:29.484Z,31.10
2022-08-24T15:42:35.641Z,31.00
2022-08-24T15:44:38.561Z,30.80
2022-08-24T15:46:49.265Z,30.50
2022-08-24T15:48:53.109Z,30.50
2022-08-24T15:50:55.955Z,30.50
2022-08-24T15:53:28.158Z,30.60
2022-08-24T15:55:31.913Z,30.90
2022-08-24T15:57:44.858Z,30.90
2022-08-24T15:59:50.683Z,30.70
2022-08-24T16:02:26.525Z,30.40
2022-08-24T16:04:47.891Z,30.10
2022-08-24T16:06:49.802Z,29.90
2022-08-24T16:09:24.144Z,29.90
2022-08-24T16:11:39.057Z,30.00
2022-08-24T16:13:43.063Z,30.00
2022-08-24T16:16:15.220Z,30.10
2022-08-24T16:18:20.247Z,29.90
2022-08-24T16:20:25.086Z,29.80
2022-08-24T16:22:36.588Z,29.80
2022-08-24T16:24:41.122Z,29.80
2022-08-24T16:26:45.723Z,29.90
2022-08-24T16:28:48.364Z,30.10
2022-08-24T16:30:58.117Z,30.20
2022-08-24T16:33:03.147Z,30.40
2022-08-24T16:35:07.606Z,30.60
2022-08-24T16:37:09.752Z,30.80
2022-08-24T16:39:12.187Z,30.90
2022-08-24T16:41:18.469Z,30.90
2022-08-24T16:43:20.268Z,30.60
2022-08-24T16:45:23.071Z,30.40
2022-08-24T16:47:26.806Z,30.10
2022-08-24T16:49:28.610Z,29.70
2022-08-24T16:51:30.375Z,29.40
2022-08-24T16:53:32.266Z,29.20
2022-08-24T16:55:34.196Z,29.00
2022-08-24T16:57:37.511Z,28.80
2022-08-24T16:59:41.756Z,28.70
2022-08-24T17:01:43.607Z,28.60
2022-08-24T17:03:45.721Z,28.50
2022-08-24T17:05:47.559Z,28.30
2022-08-24T17:07:50.899Z,28.10
2022-08-24T17:09:53.004Z,28.00
2022-08-24T17:11:54.806Z,27.80
2022-08-24T17:13:56.671Z,27.60
2022-08-24T17:15:59.762Z,27.50
2022-08-24T17:18:07.449Z,27.30
2022-08-24T17:20:11.169Z,27.20
2022-08-24T17:22:16.381Z,27.00
2022-08-24T17:24:20.809Z,26.90
2022-08-24T17:26:22.620Z,26.80
2022-08-24T17:28:24.625Z,26.60
2022-08-24T17:30:26.554Z,26.50
2022-08-24T17:32:32.332Z,26.30
2022-08-24T17:34:34.146Z,26.20
2022-08-24T17:36:36.514Z,26.10
2022-08-24T17:38:45.981Z,26.00
2022-08-24T17:40:48.948Z,25.90
2022-08-24T17:42:51.814Z,25.80
2022-08-24T17:44:54.876Z,25.70
2022-08-24T17:47:00.534Z,25.60
2022-08-24T17:49:02.957Z,25.50
2022-08-24T17:51:04.833Z,25.40
2022-08-24T17:53:06.939Z,25.30
2022-08-24T17:55:12.070Z,25.20
2022-08-24T17:57:14.911Z,25.10
2022-08-24T17:59:25.697Z,25.00
2022-08-24T18:01:28.418Z,25.00
2022-08-24T18:03:30.329Z,24.90
2022-08-24T18:05:33.839Z,24.80
2022-08-24T18:07:52.643Z,24.70
2022-08-24T18:10:00.275Z,24.60
2022-08-24T18:12:03.339Z,24.50
2022-08-24T18:14:05.232Z,24.30
2022-08-24T18:16:12.953Z,24.30
2022-08-24T18:18:14.793Z,24.20
2022-08-24T18:20:27.631Z,24.10
2022-08-24T18:22:29.801Z,24.00
2022-08-24T18:24:32.572Z,23.90
2022-08-24T18:26:34.658Z,23.80
2022-08-24T18:28:37.294Z,23.80
2022-08-24T18:30:41.426Z,23.70
2022-08-24T18:32:43.221Z,23.60
2022-08-24T18:34:45.125Z,23.50
2022-08-24T18:36:47.461Z,23.50
2022-08-24T18:38:49.307Z,23.40
2022-08-24T18:40:52.881Z,23.30
2022-08-24T18:42:57.037Z,23.20
2022-08-24T18:45:02.089Z,23.20
2022-08-24T18:47:03.942Z,23.10
2022-08-24T18:49:06.992Z,23.00
2022-08-24T18:51:10.372Z,22.90
2022-08-24T18:53:13.453Z,22.90
2022-08-24T18:55:16.852Z,22.80
2022-08-24T18:57:19.141Z,22.70
2022-08-24T18:59:22.112Z,22.70
2022-08-24T19:01:25.352Z,22.60
2022-08-24T19:03:27.257Z,22.50
2022-08-24T19:05:29.138Z,22.50
2022-08-24T19:07:34.187Z,22.40
2022-08-24T19:09:36.038Z,22.40
2022-08-24T19:11:38.325Z,22.30
2022-08-24T19:13:40.703Z,22.20
2022-08-24T19:15:46.583Z,22.20
2022-08-24T19:17:48.576Z,22.10
2022-08-24T19:19:50.376Z,22.10
2022-08-24T19:21:53.061Z,22.00
2022-08-24T19:23:56.382Z,22.00
2022-08-24T19:25:58.548Z,21.90
2022-08-24T19:28:00.334Z,21.80
2022-08-24T19:30:02.169Z,21.70
2022-08-24T19:32:04.519Z,21.70
2022-08-24T19:34:13.195Z,21.70
2022-08-24T19:36:15.364Z,21.60
2022-08-24T19:38:17.981Z,21.60
2022-08-24T19:40:21.862Z,21.60
2022-08-24T19:42:24.862Z,21.60
2022-08-24T19:44:51.868Z,21.50
2022-08-24T19:46:53.965Z,21.50
2022-08-24T19:48:56.172Z,21.50
2022-08-24T19:51:00.254Z,21.40
2022-08-24T19:53:02.377Z,21.30
2022-08-24T19:55:06.964Z,21.30
2022-08-24T19:57:36.273Z,21.30
2022-08-24T19:59:41.155Z,21.20
2022-08-24T20:01:43.008Z,21.10
2022-08-24T20:03:44.846Z,21.10
2022-08-24T20:05:46.801Z,21.10
2022-08-24T20:07:49.308Z,21.10
2022-08-24T20:09:51.094Z,21.00
2022-08-24T20:11:53.186Z,21.00
2022-08-24T20:13:55.060Z,20.90
2022-08-24T20:15:57.831Z,20.90
2022-08-24T20:17:59.912Z,20.90
2022-08-24T20:20:02.407Z,20.90
2022-08-24T20:22:13.135Z,20.80
2022-08-24T20:24:15.549Z,20.80
2022-08-24T20:26:17.451Z,20.70
2022-08-24T20:28:29.321Z,20.70
2022-08-24T20:30:32.059Z,20.70
2022-08-24T20:32:34.245Z,20.60
2022-08-24T20:34:36.098Z,20.60
2022-08-24T20:36:42.345Z,20.50
2022-08-24T20:38:44.149Z,20.50
2022-08-24T20:40:46.563Z,20.50
2022-08-24T20:42:48.491Z,20.40
2022-08-24T20:44:50.407Z,20.40
2022-08-24T20:46:52.353Z,20.40
2022-08-24T20:48:56.157Z,20.30
2022-08-24T20:50:59.064Z,20.30
2022-08-24T20:53:00.856Z,20.30
2022-08-24T20:55:05.133Z,20.20
2022-08-24T20:57:09.615Z,20.20
2022-08-24T20:59:12.849Z,20.10
2022-08-24T21:01:14.721Z,20.10
2022-08-24T21:03:18.745Z,20.10
2022-08-24T21:05:21.194Z,20.00
2022-08-24T21:07:23.094Z,20.00
2022-08-24T21:09:25.007Z,20.00
2022-08-24T21:11:26.987Z,19.90
2022-08-24T21:13:28.792Z,19.90
2022-08-24T21:15:30.870Z,19.90
2022-08-24T21:17:32.671Z,19.90
2022-08-24T21:19:34.513Z,19.80
2022-08-24T21:21:39.640Z,19.80
2022-08-24T21:23:44.425Z,19.70
2022-08-24T21:25:46.736Z,19.70
2022-08-24T21:27:50.836Z,19.70
2022-08-24T21:29:52.643Z,19.70
2022-08-24T21:32:12.825Z,19.60
2022-08-24T21:34:50.095Z,19.60
2022-08-24T21:36:52.585Z,19.60
2022-08-24T21:38:55.962Z,19.50
2022-08-24T21:40:58.752Z,19.50
2022-08-24T21:43:00.428Z,19.50
2022-08-24T21:45:02.866Z,19.40
2022-08-24T21:47:05.969Z,19.40
2022-08-24T21:49:08.903Z,19.40
2022-08-24T21:51:13.914Z,19.40
2022-08-24T21:53:16.667Z,19.30
2022-08-24T21:55:18.436Z,19.30
2022-08-24T21:57:20.226Z,19.30
2022-08-24T21:59:22.311Z,19.20
2022-08-24T22:01:24.409Z,19.20
2022-08-24T22:03:27.314Z,19.20
2022-08-24T22:05:33.574Z,19.10
2022-08-24T22:07:35.531Z,19.10
2022-08-24T22:09:37.310Z,19.10
2022-08-24T22:11:41.885Z,19.10
2022-08-24T22:13:44.269Z,19.10
2022-08-24T22:15:46.151Z,19.00
2022-08-24T22:17:51.886Z,19.00
2022-08-24T22:19:54.599Z,18.90
2022-08-24T22:21:56.388Z,18.90
2022-08-24T22:23:59.357Z,18.90
2022-08-24T22:26:01.147Z,18.80
2022-08-24T22:28:03.285Z,18.80
2022-08-24T22:30:05.964Z,18.80
2022-08-24T22:32:10.779Z,18.80
2022-08-24T22:34:16.617Z,18.70
2022-08-24T22:36:23.314Z,18.70
2022-08-24T22:38:25.058Z,18.60
2022-08-24T22:40:27.237Z,18.60
2022-08-24T22:42:29.277Z,18.60
2022-08-24T22:44:31.328Z,18.50
2022-08-24T22:46:35.027Z,18.50
2022-08-24T22:48:36.873Z,18.50
2022-08-24T22:50:43.155Z,18.50
2022-08-24T22:52:45.244Z,18.50
2022-08-24T22:54:47.150Z,18.40
2022-08-24T22:56:51.802Z,18.40
2022-08-24T22:58:55.886Z,18.40
2022-08-24T23:00:57.638Z,18.40
2022-08-24T23:02:59.440Z,18.30
2022-08-24T23:05:01.743Z,18.30
2022-08-24T23:07:05.194Z,18.30
2022-08-24T23:09:08.087Z,18.30
2022-08-24T23:11:10.044Z,18.30
2022-08-24T23:13:11.803Z,18.20
2022-08-24T23:15:13.619Z,18.20
2022-08-24T23:17:15.413Z,18.20
2022-08-24T23:19:39.588Z,18.10
2022-08-24T23:21:41.934Z,18.10
2022-08-24T23:23:44.103Z,18.10
2022-08-24T23:25:47.225Z,18.10
2022-08-24T23:27:50.199Z,18.10
2022-08-24T23:29:52.842Z,18.00
2022-08-24T23:31:54.693Z,18.00
2022-08-24T23:33:58.390Z,18.00
2022-08-24T23:36:09.919Z,18.00
2022-08-24T23:38:11.677Z,18.00
2022-08-24T23:40:13.521Z,17.90
2022-08-24T23:42:16.052Z,17.90
2022-08-24T23:44:21.707Z,17.90
2022-08-24T23:46:23.832Z,17.90
2022-08-24T23:48:25.680Z,17.90
2022-08-24T23:50:27.741Z,17.80
2022-08-24T23:52:30.727Z,17.80
2022-08-24T23:54:32.564Z,17.80
2022-08-24T23:56:37.563Z,17.80
2022-08-24T23:58:41.192Z,17.70
